Time;durP1;ratioP1;P1;durP2;ratioP2;P2;SDS_P1;SDS_P2;PMS_P1;PMS_P2;Temp;Humidity;BMP_temperature;BMP_pressure;BME280_temperature;BME280_humidity;BME280_pressure;Samples;Min_cycle;Max_cycle;Signal;HPM_P1;HPM_P2
2021/12/28 00:01:30;;;;;;;5.00;0.98;;;9.60;99.90;;;;;;5094696;28;20449;-83
2021/12/28 00:03:56;;;;;;;3.63;0.90;;;9.50;99.90;;;;;;5095899;28;20059;-83
2021/12/28 00:06:22;;;;;;;6.95;1.27;;;9.60;99.90;;;;;;5095408;28;20051;-83
2021/12/28 00:08:48;;;;;;;7.25;1.23;;;9.50;99.90;;;;;;5094624;28;20067;-83
2021/12/28 00:11:14;;;;;;;8.70;1.20;;;9.50;99.90;;;;;;5094477;28;20032;-84
2021/12/28 00:13:40;;;;;;;8.70;1.17;;;9.60;99.90;;;;;;5094108;28;20054;-83
2021/12/28 00:18:34;;;;;;;8.65;1.30;;;9.50;99.90;;;;;;5095179;28;20518;-84
2021/12/28 00:21:02;;;;;;;9.18;1.75;;;9.50;99.90;;;;;;5096204;28;20051;-83
2021/12/28 00:23:37;;;;;;;6.90;1.30;;;9.50;99.90;;;;;;5115597;28;20102;-83
2021/12/28 00:26:05;;;;;;;8.10;1.45;;;9.50;99.90;;;;;;5098073;28;20023;-83
2021/12/28 00:28:30;;;;;;;7.47;1.10;;;9.40;99.90;;;;;;5097281;28;20031;-83
2021/12/28 00:30:56;;;;;;;11.75;1.60;;;9.40;99.90;;;;;;5115647;28;20093;-83
2021/12/28 00:33:24;;;;;;;7.30;1.40;;;9.40;99.90;;;;;;5115260;28;20399;-83
2021/12/28 00:35:53;;;;;;;8.18;1.33;;;9.40;99.90;;;;;;5097800;28;20024;-83
2021/12/28 00:38:24;;;;;;;8.60;1.17;;;9.50;99.90;;;;;;5097430;28;20031;-83
2021/12/28 00:40:52;;;;;;;7.80;1.00;;;9.40;99.90;;;;;;5097957;28;20023;-83
2021/12/28 00:43:17;;;;;;;9.32;1.63;;;9.40;99.90;;;;;;5115640;28;20032;-83
2021/12/28 00:45:43;;;;;;;11.32;2.22;;;9.50;99.90;;;;;;5115132;28;20031;-83
2021/12/28 00:48:09;;;;;;;10.07;1.60;;;9.50;99.90;;;;;;5097425;28;20047;-83
2021/12/28 00:50:36;;;;;;;8.40;1.25;;;9.50;99.90;;;;;;5096749;28;20125;-83
2021/12/28 00:53:02;;;;;;;12.00;1.80;;;9.50;99.90;;;;;;5097183;28;20176;-84
2021/12/28 00:55:28;;;;;;;11.45;2.00;;;9.50;99.90;;;;;;5096951;28;20031;-83
2021/12/28 00:57:54;;;;;;;8.57;1.73;;;9.50;99.90;;;;;;5097338;28;20020;-83
2021/12/28 01:00:28;;;;;;;12.57;1.95;;;9.50;99.90;;;;;;5097246;28;20472;-84
2021/12/28 01:02:55;;;;;;;7.55;1.38;;;9.50;99.90;;;;;;5097700;28;20035;-83
2021/12/28 01:05:23;;;;;;;9.02;1.80;;;9.50;99.90;;;;;;5097226;28;20024;-83
2021/12/28 01:07:49;;;;;;;9.38;1.33;;;9.50;99.90;;;;;;5097040;28;20086;-83
2021/12/28 01:10:20;;;;;;;13.57;1.70;;;9.50;99.90;;;;;;5097015;28;20123;-83
2021/12/28 01:12:49;;;;;;;13.77;1.65;;;9.50;99.90;;;;;;5096680;28;20023;-83
2021/12/28 01:15:15;;;;;;;16.15;2.08;;;9.50;99.90;;;;;;5097164;28;20118;-83
2021/12/28 01:17:41;;;;;;;13.52;1.70;;;9.50;99.90;;;;;;5096469;28;20460;-83
2021/12/28 01:20:10;;;;;;;11.38;1.65;;;9.50;99.90;;;;;;5096902;28;20095;-84
2021/12/28 01:22:39;;;;;;;12.60;1.77;;;9.60;99.90;;;;;;5092457;28;20040;-83
2021/12/28 01:25:06;;;;;;;12.05;1.55;;;9.60;99.90;;;;;;5093842;28;20028;-83
2021/12/28 01:27:32;;;;;;;12.57;1.33;;;9.50;99.90;;;;;;5093113;28;20032;-83
2021/12/28 01:29:58;;;;;;;8.05;1.23;;;9.40;99.90;;;;;;5093349;28;20024;-83
2021/12/28 01:32:24;;;;;;;9.85;1.45;;;9.30;99.90;;;;;;5092566;28;20027;-82
2021/12/28 01:34:50;;;;;;;6.70;1.60;;;9.20;99.90;;;;;;5092910;28;20097;-83
2021/12/28 01:37:15;;;;;;;15.18;1.83;;;9.20;99.90;;;;;;5094108;28;20469;-83
2021/12/28 01:39:41;;;;;;;9.98;1.65;;;9.00;99.90;;;;;;5092773;28;20068;-83
2021/12/28 01:42:07;;;;;;;8.65;2.22;;;9.00;99.90;;;;;;5093232;28;20426;-83
2021/12/28 01:44:34;;;;;;;11.52;1.60;;;8.90;99.90;;;;;;5092730;28;20023;-83
2021/12/28 01:47:01;;;;;;;11.68;1.70;;;8.90;99.90;;;;;;5094262;28;20465;-83
2021/12/28 01:49:27;;;;;;;8.10;1.40;;;8.90;99.90;;;;;;5092677;28;20032;-82
2021/12/28 01:51:53;;;;;;;10.27;1.60;;;8.90;99.90;;;;;;5093131;28;20469;-83
2021/12/28 01:54:19;;;;;;;10.73;2.15;;;8.90;99.90;;;;;;5094046;28;20024;-83
2021/12/28 01:56:47;;;;;;;9.77;1.55;;;8.90;99.90;;;;;;5092388;28;20020;-83
2021/12/28 01:59:19;;;;;;;10.05;1.70;;;8.80;99.90;;;;;;5093027;28;20032;-83
2021/12/28 02:01:45;;;;;;;11.10;1.90;;;8.80;99.90;;;;;;5092191;28;20473;-83
2021/12/28 02:04:15;;;;;;;9.13;1.52;;;8.80;99.90;;;;;;5092894;28;20420;-83
2021/12/28 02:06:40;;;;;;;9.57;1.80;;;8.80;99.90;;;;;;5093434;28;20032;-83
2021/12/28 02:09:06;;;;;;;8.60;1.25;;;8.80;99.90;;;;;;5092889;28;20032;-83
2021/12/28 02:11:32;;;;;;;12.75;1.70;;;8.70;99.90;;;;;;5092466;28;20024;-84
2021/12/28 02:13:58;;;;;;;10.25;1.65;;;8.70;99.90;;;;;;5092900;28;20028;-83
2021/12/28 02:16:24;;;;;;;11.90;1.77;;;8.70;99.90;;;;;;5092636;28;20416;-83
2021/12/28 02:18:49;;;;;;;6.88;1.38;;;8.70;99.90;;;;;;5092210;28;20123;-83
2021/12/28 02:21:15;;;;;;;5.30;1.30;;;8.70;99.90;;;;;;5092446;28;20071;-83
2021/12/28 02:23:41;;;;;;;9.18;1.90;;;8.70;99.90;;;;;;5092141;28;20027;-83
2021/12/28 02:26:07;;;;;;;7.05;1.45;;;8.70;99.90;;;;;;5093903;28;20149;-83
2021/12/28 02:28:33;;;;;;;14.18;1.50;;;8.70;99.90;;;;;;5091992;28;20028;-83
2021/12/28 02:30:59;;;;;;;5.97;1.15;;;8.70;99.90;;;;;;5093661;28;20086;-83
2021/12/28 02:33:27;;;;;;;6.93;1.25;;;8.70;99.90;;;;;;5092799;28;20028;-84
2021/12/28 02:35:54;;;;;;;8.45;1.65;;;8.70;99.90;;;;;;5092447;28;20020;-83
2021/12/28 02:38:20;;;;;;;10.50;1.60;;;8.60;99.90;;;;;;5092632;28;20036;-83
2021/12/28 02:40:46;;;;;;;5.90;1.17;;;8.60;99.90;;;;;;5092059;28;20035;-83
2021/12/28 02:43:14;;;;;;;11.70;1.35;;;8.50;99.90;;;;;;5092696;28;20024;-83
2021/12/28 02:45:54;;;;;;;6.75;1.33;;;8.50;99.90;;;;;;5094896;28;20024;-83
2021/12/28 02:48:21;;;;;;;10.48;1.08;;;8.50;99.90;;;;;;5096448;28;20055;-83
2021/12/28 02:50:49;;;;;;;7.47;1.55;;;8.50;99.90;;;;;;5095943;28;20028;-84
2021/12/28 02:53:18;;;;;;;12.02;1.20;;;8.50;99.90;;;;;;5096410;28;20027;-83
2021/12/28 02:55:45;;;;;;;5.68;1.33;;;8.50;99.90;;;;;;5095966;28;20119;-83
2021/12/28 02:58:32;;;;;;;8.30;1.45;;;8.40;99.90;;;;;;5096016;28;20020;-83
2021/12/28 03:01:13;;;;;;;10.63;1.88;;;8.40;99.90;;;;;;5086463;28;20036;-84
2021/12/28 03:03:40;;;;;;;8.00;1.50;;;8.40;99.90;;;;;;5095764;28;20028;-84
2021/12/28 03:06:08;;;;;;;7.30;1.17;;;8.40;99.90;;;;;;5096085;28;20024;-84
2021/12/28 03:08:40;;;;;;;7.57;1.50;;;8.30;99.90;;;;;;5095671;28;20032;-83
2021/12/28 03:11:08;;;;;;;8.23;1.63;;;8.30;99.90;;;;;;5096459;28;20024;-84
2021/12/28 03:13:39;;;;;;;7.63;1.10;;;8.30;99.90;;;;;;5095760;28;20028;-83
2021/12/28 03:16:07;;;;;;;8.85;1.20;;;8.20;99.90;;;;;;5096272;28;20028;-84
2021/12/28 03:18:33;;;;;;;8.05;1.35;;;8.20;99.90;;;;;;5095440;28;20066;-83
2021/12/28 03:20:58;;;;;;;9.25;1.33;;;8.20;99.90;;;;;;5098696;28;20527;-83
2021/12/28 03:23:25;;;;;;;5.75;1.15;;;8.20;99.90;;;;;;5099378;28;20031;-83
2021/12/28 03:25:52;;;;;;;8.80;1.58;;;8.20;99.90;;;;;;5116677;28;20028;-83
2021/12/28 03:28:20;;;;;;;6.90;1.30;;;8.20;99.90;;;;;;5099069;28;20068;-83
2021/12/28 03:30:47;;;;;;;6.55;1.30;;;8.20;99.90;;;;;;5098501;28;20077;-83
2021/12/28 03:33:13;;;;;;;7.25;1.52;;;8.20;99.90;;;;;;5098966;28;20077;-83
2021/12/28 03:35:39;;;;;;;6.30;1.27;;;8.20;99.90;;;;;;5098786;28;20035;-83
2021/12/28 03:38:05;;;;;;;7.68;1.20;;;8.10;99.90;;;;;;5099109;28;20031;-84
2021/12/28 03:40:30;;;;;;;7.32;1.20;;;8.10;99.90;;;;;;5098971;28;20072;-83
2021/12/28 03:42:56;;;;;;;5.78;1.42;;;8.10;99.90;;;;;;5098532;28;20047;-83
2021/12/28 03:45:22;;;;;;;5.15;1.25;;;8.10;99.90;;;;;;5098988;28;20578;-83
2021/12/28 03:47:47;;;;;;;3.53;1.20;;;8.10;99.90;;;;;;5098307;28;20456;-83
2021/12/28 03:50:14;;;;;;;5.97;1.50;;;8.10;99.90;;;;;;5098774;28;20027;-83
2021/12/28 03:52:40;;;;;;;8.43;1.45;;;8.20;99.90;;;;;;5116086;28;20034;-83
2021/12/28 03:55:07;;;;;;;4.03;1.05;;;8.20;99.90;;;;;;5098339;28;20024;-83
2021/12/28 03:57:33;;;;;;;5.30;1.30;;;8.20;99.90;;;;;;5097571;28;20034;-83
2021/12/28 03:59:59;;;;;;;8.75;1.35;;;8.20;99.90;;;;;;5098842;28;20118;-84
2021/12/28 04:02:24;;;;;;;8.30;1.63;;;8.10;99.90;;;;;;5116732;28;20024;-83
2021/12/28 04:04:50;;;;;;;4.65;1.13;;;8.10;99.90;;;;;;5097958;28;20031;-83
2021/12/28 04:07:20;;;;;;;6.57;1.40;;;8.10;99.90;;;;;;5116390;28;20034;-83
2021/12/28 04:09:59;;;;;;;9.73;1.42;;;8.10;99.90;;;;;;5097621;28;20031;-84
2021/12/28 04:12:25;;;;;;;8.40;1.30;;;8.10;99.90;;;;;;5098305;28;20027;-84
2021/12/28 04:14:50;;;;;;;6.43;1.58;;;8.10;99.90;;;;;;5115947;28;20028;-83
2021/12/28 04:17:16;;;;;;;10.05;1.20;;;8.20;99.90;;;;;;5116343;28;20415;-84
2021/12/28 04:19:41;;;;;;;4.85;1.10;;;8.20;99.90;;;;;;5116062;28;20037;-83
2021/12/28 04:22:07;;;;;;;10.45;1.45;;;8.10;99.90;;;;;;5116327;28;20083;-84
2021/12/28 04:24:34;;;;;;;6.47;1.15;;;8.10;99.90;;;;;;5098098;28;20110;-83
2021/12/28 04:27:00;;;;;;;7.13;1.30;;;8.20;99.90;;;;;;5097995;28;20042;-84
2021/12/28 04:29:25;;;;;;;4.00;1.00;;;8.20;99.90;;;;;;5097928;28;20035;-84
2021/12/28 04:31:51;;;;;;;7.75;1.00;;;8.20;99.90;;;;;;5097463;28;20027;-83
2021/12/28 04:34:17;;;;;;;8.20;1.05;;;8.20;99.90;;;;;;5097811;28;20163;-84
2021/12/28 04:36:43;;;;;;;5.20;0.93;;;8.20;99.90;;;;;;5115306;28;20107;-84
2021/12/28 04:39:09;;;;;;;5.13;1.10;;;8.20;99.90;;;;;;5097585;28;20361;-83
2021/12/28 04:41:35;;;;;;;4.93;1.27;;;8.30;99.90;;;;;;5097782;28;20110;-84
2021/12/28 04:44:01;;;;;;;5.50;1.20;;;8.30;99.90;;;;;;5115849;28;20103;-84
2021/12/28 04:46:31;;;;;;;6.78;1.27;;;8.30;99.90;;;;;;5097780;28;20121;-84
2021/12/28 04:48:57;;;;;;;3.65;1.00;;;8.30;99.90;;;;;;5097273;28;20486;-83
2021/12/28 04:51:23;;;;;;;7.82;1.10;;;8.40;99.90;;;;;;5097507;28;20035;-83
2021/12/28 04:53:52;;;;;;;12.05;1.83;;;8.40;99.90;;;;;;5096961;28;20031;-84
2021/12/28 04:56:18;;;;;;;13.65;3.03;;;8.50;99.90;;;;;;5097594;28;20456;-83
2021/12/28 04:58:44;;;;;;;8.73;2.28;;;8.50;99.90;;;;;;5096913;28;20038;-83
2021/12/28 05:01:09;;;;;;;9.13;2.35;;;8.60;99.90;;;;;;5097119;28;20460;-83
2021/12/28 05:03:35;;;;;;;12.13;3.58;;;8.50;99.90;;;;;;5097170;28;20027;-84
2021/12/28 05:06:01;;;;;;;11.60;3.33;;;8.50;99.90;;;;;;5096973;28;20406;-83
2021/12/28 05:08:26;;;;;;;6.72;2.58;;;8.50;99.90;;;;;;5097045;28;20078;-83
2021/12/28 05:10:53;;;;;;;5.55;1.40;;;8.60;99.90;;;;;;5096671;28;20461;-83
2021/12/28 05:13:21;;;;;;;6.22;1.50;;;8.70;99.90;;;;;;5097024;28;20028;-83
2021/12/28 05:15:53;;;;;;;5.10;0.93;;;8.80;99.90;;;;;;5096564;28;20468;-83
2021/12/28 05:18:20;;;;;;;2.80;0.70;;;8.80;99.90;;;;;;5097349;28;20028;-83
2021/12/28 05:20:46;;;;;;;4.68;0.73;;;8.90;99.90;;;;;;5096356;28;20020;-82
2021/12/28 05:23:13;;;;;;;4.22;0.55;;;8.90;99.90;;;;;;5096912;28;20478;-83
2021/12/28 05:25:38;;;;;;;2.25;0.50;;;8.90;99.90;;;;;;5114178;28;20525;-82
2021/12/28 05:28:05;;;;;;;4.25;0.77;;;8.90;99.90;;;;;;5096720;28;20024;-83
2021/12/28 05:30:34;;;;;;;3.47;0.50;;;9.00;99.90;;;;;;5114562;28;20031;-83
2021/12/28 05:33:00;;;;;;;2.95;0.63;;;9.00;99.90;;;;;;5095847;28;20079;-83
2021/12/28 05:35:26;;;;;;;1.75;0.57;;;9.10;99.90;;;;;;5096583;28;20023;-83
2021/12/28 05:37:52;;;;;;;4.35;0.70;;;9.10;99.90;;;;;;5096190;28;20050;-83
2021/12/28 05:40:18;;;;;;;1.67;0.32;;;9.10;99.90;;;;;;5096478;28;20031;-83
2021/12/28 05:42:44;;;;;;;2.08;0.50;;;9.10;99.90;;;;;;5096341;28;20035;-83
2021/12/28 05:45:10;;;;;;;7.72;1.10;;;9.10;99.90;;;;;;5096426;28;20023;-83
2021/12/28 05:47:36;;;;;;;2.75;0.88;;;9.10;99.90;;;;;;5096623;28;20020;-83
2021/12/28 05:50:04;;;;;;;2.97;0.60;;;9.10;99.90;;;;;;5114323;28;20121;-83
2021/12/28 05:52:30;;;;;;;2.65;0.40;;;9.20;99.90;;;;;;5114422;28;20383;-83
2021/12/28 05:54:58;;;;;;;3.60;0.35;;;9.10;99.90;;;;;;5095944;28;20115;-83
2021/12/28 05:57:24;;;;;;;2.33;0.30;;;9.10;99.90;;;;;;5096796;28;20054;-83
2021/12/28 05:59:50;;;;;;;2.75;0.25;;;9.10;99.90;;;;;;5095881;28;20468;-83
2021/12/28 06:02:16;;;;;;;4.18;0.30;;;9.20;99.90;;;;;;5096465;28;20055;-83
2021/12/28 06:04:42;;;;;;;1.85;0.35;;;9.20;99.90;;;;;;5095741;28;20035;-83
2021/12/28 06:07:07;;;;;;;1.77;0.30;;;9.20;99.90;;;;;;5096555;28;20051;-83
2021/12/28 06:09:33;;;;;;;2.42;0.32;;;9.20;99.90;;;;;;5096609;28;20031;-83
2021/12/28 06:11:58;;;;;;;4.18;0.32;;;9.20;99.90;;;;;;5113845;28;20483;-83
2021/12/28 06:14:24;;;;;;;1.92;0.40;;;9.20;99.90;;;;;;5096361;28;20385;-83
2021/12/28 06:16:50;;;;;;;3.50;0.52;;;9.10;99.90;;;;;;5095862;28;20032;-83
2021/12/28 06:19:18;;;;;;;2.65;0.30;;;9.10;99.90;;;;;;5114810;28;20484;-83
2021/12/28 06:21:44;;;;;;;1.00;0.38;;;9.10;99.90;;;;;;5099584;28;20488;-83
2021/12/28 06:24:09;;;;;;;1.58;0.30;;;9.10;99.90;;;;;;5100406;28;20038;-83
2021/12/28 06:26:35;;;;;;;1.10;0.32;;;9.00;99.90;;;;;;5100363;28;20069;-83
2021/12/28 06:29:04;;;;;;;1.95;0.35;;;9.00;99.90;;;;;;5099687;28;20291;-83
2021/12/28 06:31:30;;;;;;;4.25;0.50;;;9.00;99.90;;;;;;5118391;28;20053;-83
2021/12/28 06:33:57;;;;;;;3.20;0.30;;;9.00;99.90;;;;;;5099869;28;20036;-83
2021/12/28 06:36:23;;;;;;;0.57;0.40;;;9.00;99.90;;;;;;5100059;28;20090;-83
2021/12/28 06:38:50;;;;;;;1.60;0.30;;;9.00;99.90;;;;;;5099538;28;20042;-83
2021/12/28 06:41:16;;;;;;;0.75;0.22;;;8.90;99.90;;;;;;5117833;28;20471;-83
2021/12/28 06:43:42;;;;;;;0.57;0.30;;;9.00;99.90;;;;;;5117885;28;20023;-84
2021/12/28 06:46:08;;;;;;;1.65;0.80;;;9.00;99.90;;;;;;5099919;28;20035;-84
2021/12/28 06:48:36;;;;;;;1.35;0.55;;;9.00;99.90;;;;;;5099914;28;20452;-83
2021/12/28 06:51:03;;;;;;;5.15;0.70;;;9.00;99.90;;;;;;5099473;28;20027;-83
2021/12/28 06:53:28;;;;;;;2.08;0.30;;;9.10;99.90;;;;;;5099913;28;20128;-83
2021/12/28 06:55:54;;;;;;;1.42;0.30;;;9.30;99.90;;;;;;5099334;28;20456;-83
2021/12/28 06:58:19;;;;;;;0.63;0.20;;;9.30;99.90;;;;;;5099656;28;20023;-83
2021/12/28 07:00:45;;;;;;;0.43;0.10;;;9.40;99.90;;;;;;5099005;28;20053;-83
2021/12/28 07:03:11;;;;;;;0.32;0.10;;;9.40;99.90;;;;;;5099229;28;20027;-82
2021/12/28 07:05:36;;;;;;;3.05;0.32;;;9.60;99.90;;;;;;5099624;28;20031;-83
2021/12/28 07:08:03;;;;;;;0.28;0.10;;;9.60;99.90;;;;;;5099021;28;20415;-83
2021/12/28 07:10:28;;;;;;;1.23;0.32;;;9.60;99.90;;;;;;5099444;28;20032;-83
2021/12/28 07:12:54;;;;;;;0.30;0.10;;;9.70;99.90;;;;;;5116980;28;20107;-83
2021/12/28 07:15:22;;;;;;;1.08;0.10;;;9.70;99.90;;;;;;5099702;28;20121;-83
2021/12/28 07:17:48;;;;;;;0.10;0.00;;;9.70;99.90;;;;;;5098947;28;20118;-83
2021/12/28 07:20:15;;;;;;;0.10;0.00;;;9.70;99.90;;;;;;5099476;28;20024;-83
2021/12/28 07:22:42;;;;;;;0.68;0.10;;;9.80;99.90;;;;;;5098697;28;20051;-84
2021/12/28 07:25:10;;;;;;;0.00;0.00;;;9.80;99.90;;;;;;5098643;28;20027;-83
2021/12/28 07:27:36;;;;;;;0.77;0.20;;;9.90;99.90;;;;;;5117193;28;20024;-83
2021/12/28 07:30:05;;;;;;;0.03;0.00;;;9.90;99.90;;;;;;5097944;28;20035;-83
2021/12/28 07:32:30;;;;;;;0.47;0.10;;;10.00;99.90;;;;;;5115749;28;20042;-83
2021/12/28 07:34:56;;;;;;;0.40;0.10;;;9.90;99.90;;;;;;5098254;28;20036;-83
2021/12/28 07:37:22;;;;;;;0.00;0.00;;;9.90;99.90;;;;;;5099253;28;20136;-83
2021/12/28 07:39:50;;;;;;;1.08;0.10;;;9.90;99.90;;;;;;5098500;28;20043;-83
2021/12/28 07:42:19;;;;;;;0.43;0.00;;;9.90;99.90;;;;;;5098856;28;20031;-82
2021/12/28 07:44:44;;;;;;;1.10;0.10;;;9.90;99.90;;;;;;5116579;28;20449;-83
2021/12/28 07:47:10;;;;;;;0.32;0.03;;;9.80;99.90;;;;;;5098296;28;20028;-83
2021/12/28 07:49:36;;;;;;;0.15;0.00;;;9.90;99.90;;;;;;5098639;28;20180;-83
2021/12/28 07:52:02;;;;;;;0.40;0.10;;;9.90;99.90;;;;;;5098255;28;20031;-83
2021/12/28 07:54:28;;;;;;;0.10;0.10;;;9.90;99.90;;;;;;5098682;28;20024;-83
2021/12/28 07:56:53;;;;;;;8.45;0.40;;;9.90;99.90;;;;;;5116101;28;20373;-83
2021/12/28 07:59:19;;;;;;;0.63;0.10;;;9.90;99.90;;;;;;5098693;28;20468;-83
2021/12/28 08:01:45;;;;;;;0.15;0.05;;;9.90;99.90;;;;;;5098669;28;20036;-83
2021/12/28 08:04:10;;;;;;;0.00;0.00;;;9.90;99.90;;;;;;5116281;28;20464;-83
2021/12/28 08:06:36;;;;;;;0.25;0.10;;;9.90;99.90;;;;;;5098143;28;20055;-83
2021/12/28 08:09:02;;;;;;;0.20;0.10;;;9.90;99.90;;;;;;5115844;28;20032;-83
2021/12/28 08:11:28;;;;;;;0.55;0.10;;;9.90;99.90;;;;;;5098486;28;20055;-83
2021/12/28 08:13:54;;;;;;;0.60;0.10;;;9.90;99.90;;;;;;5116041;28;20047;-83
2021/12/28 08:16:20;;;;;;;0.22;0.10;;;9.90;99.90;;;;;;5116090;28;20016;-83
2021/12/28 08:18:46;;;;;;;0.65;0.20;;;10.00;99.90;;;;;;5098101;28;20031;-83
2021/12/28 08:21:11;;;;;;;0.57;0.10;;;10.00;99.90;;;;;;5115609;28;20023;-83
2021/12/28 08:23:37;;;;;;;0.10;0.10;;;10.10;99.90;;;;;;5098367;28;20119;-83
2021/12/28 08:26:03;;;;;;;0.50;0.10;;;10.10;99.90;;;;;;5097559;28;20042;-81
2021/12/28 08:28:29;;;;;;;0.15;0.10;;;10.10;99.90;;;;;;5097851;28;20023;-83
2021/12/28 08:30:56;;;;;;;0.20;0.15;;;10.20;99.90;;;;;;5097164;28;20468;-83
2021/12/28 08:33:23;;;;;;;0.80;0.10;;;10.20;99.90;;;;;;5115952;28;20027;-83
2021/12/28 08:35:49;;;;;;;0.10;0.10;;;10.30;99.90;;;;;;5097602;28;20475;-83
2021/12/28 08:38:15;;;;;;;0.10;0.10;;;10.30;99.90;;;;;;5115796;28;20038;-83
2021/12/28 08:40:43;;;;;;;0.40;0.10;;;10.30;99.90;;;;;;5097675;28;20110;-84
2021/12/28 08:43:10;;;;;;;0.20;0.05;;;10.40;99.90;;;;;;5096765;28;20077;-84
2021/12/28 08:45:36;;;;;;;0.00;0.00;;;10.40;99.90;;;;;;5097632;28;20058;-84
2021/12/28 08:48:03;;;;;;;0.10;0.10;;;10.40;99.90;;;;;;5096801;28;20032;-83
2021/12/28 08:50:29;;;;;;;0.40;0.20;;;10.40;99.90;;;;;;5097106;28;20472;-85
2021/12/28 08:52:55;;;;;;;0.10;0.10;;;10.40;99.90;;;;;;5114700;28;20038;-83
2021/12/28 08:55:22;;;;;;;0.40;0.15;;;10.40;99.90;;;;;;5097287;28;20020;-83
2021/12/28 08:57:48;;;;;;;0.15;0.10;;;10.40;99.90;;;;;;5097329;28;20084;-83
2021/12/28 09:00:20;;;;;;;0.00;0.00;;;10.30;99.90;;;;;;5096802;28;20031;-83
2021/12/28 09:02:47;;;;;;;0.10;0.10;;;10.40;99.90;;;;;;5097206;28;20079;-83
2021/12/28 09:05:12;;;;;;;0.40;0.08;;;10.40;99.90;;;;;;5096625;28;20033;-85
2021/12/28 09:07:38;;;;;;;0.08;0.08;;;10.40;99.90;;;;;;5115069;28;20031;-84
2021/12/28 09:10:05;;;;;;;0.43;0.20;;;10.40;99.90;;;;;;5114605;28;20032;-84
2021/12/28 09:12:30;;;;;;;0.55;0.10;;;10.40;99.90;;;;;;5096254;28;20084;-83
2021/12/28 09:14:56;;;;;;;0.20;0.10;;;10.40;99.90;;;;;;5096650;28;20526;-83
2021/12/28 09:17:22;;;;;;;0.77;0.13;;;10.40;99.90;;;;;;5096980;28;20023;-83
2021/12/28 09:19:47;;;;;;;0.73;0.17;;;10.40;99.90;;;;;;5096993;28;20042;-84
2021/12/28 09:22:13;;;;;;;0.30;0.20;;;10.50;99.90;;;;;;5096109;28;20447;-84
2021/12/28 09:24:39;;;;;;;1.65;0.10;;;10.50;99.90;;;;;;5096868;28;20055;-84
2021/12/28 09:27:05;;;;;;;0.50;0.10;;;10.50;99.90;;;;;;5096798;28;20023;-83
2021/12/28 09:29:32;;;;;;;0.10;0.00;;;10.60;99.90;;;;;;5115051;28;20059;-84
2021/12/28 09:31:58;;;;;;;0.25;0.10;;;10.60;99.90;;;;;;5096367;28;20123;-83
2021/12/28 09:34:26;;;;;;;0.30;0.20;;;10.60;99.90;;;;;;5096673;28;20032;-84
2021/12/28 09:36:52;;;;;;;0.10;0.10;;;10.70;99.90;;;;;;5096733;28;20030;-84
2021/12/28 09:39:22;;;;;;;0.88;0.20;;;10.80;99.90;;;;;;5096796;28;20036;-84
2021/12/28 09:41:54;;;;;;;0.10;0.10;;;10.80;99.90;;;;;;5114762;28;20027;-83
2021/12/28 09:44:20;;;;;;;;;;;10.80;99.90;;;;;;5097208;28;20082;-84
2021/12/28 09:46:46;;;;;;;1.38;0.20;;;10.80;99.90;;;;;;5114817;28;20336;-83
2021/12/28 09:49:12;;;;;;;1.38;0.20;;;10.80;99.90;;;;;;5096364;28;20393;-83
2021/12/28 09:51:37;;;;;;;0.43;0.20;;;10.80;99.90;;;;;;5096614;28;20051;-82
2021/12/28 09:54:03;;;;;;;0.43;0.25;;;10.90;99.90;;;;;;5095271;28;20030;-83
2021/12/28 09:56:29;;;;;;;0.50;0.25;;;10.90;99.90;;;;;;5096539;28;20528;-84
2021/12/28 09:58:55;;;;;;;0.20;0.10;;;10.90;99.90;;;;;;5095916;28;20430;-82
2021/12/28 10:01:20;;;;;;;0.57;0.10;;;11.00;99.90;;;;;;5096502;28;20046;-84
2021/12/28 10:03:47;;;;;;;0.28;0.10;;;10.90;99.90;;;;;;5096375;28;20028;-83
2021/12/28 10:06:18;;;;;;;2.53;0.20;;;11.00;99.90;;;;;;5095821;28;20543;-83
2021/12/28 10:08:44;;;;;;;1.67;0.20;;;11.00;99.90;;;;;;5096531;28;20031;-84
2021/12/28 10:11:10;;;;;;;0.52;0.20;;;10.90;99.90;;;;;;5096098;28;20123;-85
2021/12/28 10:13:35;;;;;;;0.40;0.20;;;10.90;99.90;;;;;;5096666;28;20436;-84
2021/12/28 10:16:01;;;;;;;0.57;0.30;;;10.90;99.90;;;;;;5095860;28;20024;-83
2021/12/28 10:18:27;;;;;;;1.10;0.25;;;11.00;99.90;;;;;;5114343;28;20031;-84
2021/12/28 10:20:57;;;;;;;1.30;0.30;;;11.00;99.90;;;;;;5096407;28;20055;-84
2021/12/28 10:23:26;;;;;;;1.15;0.30;;;11.00;99.90;;;;;;5095998;28;20086;-84
2021/12/28 10:25:55;;;;;;;0.40;0.20;;;11.00;99.90;;;;;;5096448;28;20020;-84
2021/12/28 10:28:25;;;;;;;1.42;0.20;;;11.00;99.90;;;;;;5096177;28;20028;-84
2021/12/28 10:30:56;;;;;;;0.32;0.20;;;11.00;99.90;;;;;;5096301;28;20035;-83
2021/12/28 10:33:24;;;;;;;0.32;0.30;;;10.90;99.90;;;;;;5114416;28;20031;-84
2021/12/28 10:35:55;;;;;;;0.30;0.20;;;10.90;99.90;;;;;;5096287;28;20030;-84
2021/12/28 10:38:27;;;;;;;1.08;0.28;;;10.90;99.90;;;;;;5095746;28;20028;-83
2021/12/28 10:40:55;;;;;;;2.08;0.30;;;10.80;99.90;;;;;;5096417;28;20115;-84
2021/12/28 10:43:30;;;;;;;0.52;0.30;;;10.80;99.90;;;;;;5095621;28;20028;-84
2021/12/28 10:46:02;;;;;;;1.75;0.40;;;10.90;99.90;;;;;;5095821;28;20024;-84
2021/12/28 10:48:35;;;;;;;0.60;0.20;;;10.90;99.90;;;;;;5096236;28;20034;-84
2021/12/28 10:51:06;;;;;;;1.65;0.22;;;10.90;99.90;;;;;;5095622;28;20032;-83
2021/12/28 10:54:06;;;;;;;0.50;0.28;;;10.90;99.90;;;;;;5096213;28;20455;-84
2021/12/28 10:56:53;;;;;;;0.98;0.30;;;11.00;99.90;;;;;;5096228;28;20457;-83
2021/12/28 10:59:25;;;;;;;1.35;0.20;;;11.00;99.90;;;;;;5112668;28;20119;-83
2021/12/28 11:01:51;;;;;;;0.20;0.20;;;11.00;99.90;;;;;;5095821;28;20034;-82
2021/12/28 11:04:19;;;;;;;0.77;0.25;;;10.90;99.90;;;;;;5095389;28;20036;-82
2021/12/28 11:06:46;;;;;;;0.60;0.20;;;10.90;99.90;;;;;;5098740;28;20020;-82
2021/12/28 11:09:18;;;;;;;0.35;0.20;;;10.90;99.90;;;;;;5098847;28;20019;-82
2021/12/28 11:11:43;;;;;;;0.38;0.28;;;11.00;99.90;;;;;;5099288;28;20027;-82
2021/12/28 11:14:14;;;;;;;0.22;0.10;;;11.00;99.90;;;;;;5098686;28;20358;-82
2021/12/28 11:16:41;;;;;;;1.70;0.33;;;11.00;99.90;;;;;;5099297;28;20023;-83
2021/12/28 11:19:10;;;;;;;1.00;0.40;;;11.00;99.90;;;;;;5098623;28;20031;-83
2021/12/28 11:21:49;;;;;;;0.63;0.30;;;11.10;99.90;;;;;;5098769;28;20052;-83
2021/12/28 11:24:15;;;;;;;0.40;0.20;;;11.00;99.90;;;;;;5116588;28;20377;-83
2021/12/28 11:26:42;;;;;;;0.60;0.40;;;11.00;99.90;;;;;;5099029;28;20165;-84
2021/12/28 11:29:13;;;;;;;0.52;0.28;;;11.00;99.90;;;;;;5116473;28;20032;-84
2021/12/28 11:31:41;;;;;;;1.27;0.40;;;11.00;99.90;;;;;;5099161;28;20063;-84
2021/12/28 11:34:31;;;;;;;0.60;0.30;;;11.10;99.90;;;;;;5098528;28;20072;-83
2021/12/28 11:37:09;;;;;;;0.45;0.30;;;11.10;99.90;;;;;;5098128;28;20032;-84
2021/12/28 11:39:44;;;;;;;1.80;0.30;;;11.20;99.90;;;;;;5098908;28;20024;-83
2021/12/28 11:42:12;;;;;;;0.63;0.28;;;11.30;99.90;;;;;;5116515;28;20128;-84
2021/12/28 11:44:38;;;;;;;0.50;0.20;;;11.30;99.90;;;;;;5098493;28;20464;-84
2021/12/28 11:47:06;;;;;;;1.17;0.20;;;11.40;99.90;;;;;;5098225;28;20069;-83
2021/12/28 11:49:33;;;;;;;0.40;0.20;;;11.40;99.90;;;;;;5116457;28;20032;-82
2021/12/28 11:52:01;;;;;;;1.02;0.20;;;11.50;99.90;;;;;;5098745;28;20045;-84
2021/12/28 11:54:34;;;;;;;0.65;0.20;;;11.60;99.90;;;;;;5098497;28;20062;-83
2021/12/28 11:57:07;;;;;;;0.20;0.15;;;11.70;99.90;;;;;;5098442;28;20036;-83
2021/12/28 11:59:33;;;;;;;0.30;0.30;;;11.70;99.90;;;;;;5098692;28;20460;-83
2021/12/28 12:02:05;;;;;;;0.88;0.20;;;11.70;99.90;;;;;;5116529;28;20061;-83
2021/12/28 12:04:30;;;;;;;0.38;0.20;;;11.70;99.90;;;;;;5098282;28;20492;-84
2021/12/28 12:07:00;;;;;;;0.20;0.10;;;11.70;99.90;;;;;;5098040;28;20024;-85
2021/12/28 12:09:26;;;;;;;1.40;0.20;;;11.70;99.90;;;;;;5115585;28;20449;-84
2021/12/28 12:12:15;;;;;;;1.67;0.28;;;11.70;99.90;;;;;;5098110;28;20028;-84
2021/12/28 12:14:50;;;;;;;1.02;0.28;;;11.80;99.90;;;;;;5098366;28;20077;-84
2021/12/28 12:17:28;;;;;;;0.70;0.20;;;11.70;99.90;;;;;;5097007;28;20031;-84
2021/12/28 12:20:20;;;;;;;1.23;0.20;;;11.60;99.90;;;;;;5116091;28;20024;-83
2021/12/28 12:22:48;;;;;;;0.45;0.10;;;11.50;99.90;;;;;;5080770;28;20044;-84
2021/12/28 12:25:22;;;;;;;0.30;0.17;;;11.40;99.90;;;;;;5094124;28;20028;-83
2021/12/28 12:27:56;;;;;;;0.40;0.20;;;11.40;99.90;;;;;;5095540;28;20028;-84
2021/12/28 12:30:25;;;;;;;0.20;0.10;;;11.40;99.90;;;;;;5093860;28;20035;-84
2021/12/28 12:33:00;;;;;;;1.73;0.28;;;11.40;99.90;;;;;;5094246;28;20393;-86
2021/12/28 12:35:35;;;;;;;1.00;0.20;;;11.40;99.90;;;;;;5093471;28;20044;-84
2021/12/28 12:38:17;;;;;;;0.80;0.20;;;11.40;99.90;;;;;;5095211;28;20057;-84
2021/12/28 12:41:23;;;;;;;0.20;0.20;;;11.40;99.90;;;;;;5094411;28;20040;-84
2021/12/28 12:43:58;;;;;;;0.32;0.30;;;11.40;99.90;;;;;;5094519;28;20161;-83
2021/12/28 12:46:38;;;;;;;0.65;0.15;;;11.40;99.90;;;;;;5093702;28;20035;-83
2021/12/28 12:49:07;;;;;;;3.38;0.40;;;11.40;99.90;;;;;;5093780;28;20173;-82
2021/12/28 12:51:37;;;;;;;4.47;0.30;;;11.40;99.90;;;;;;5094047;28;20027;-84
2021/12/28 12:54:06;;;;;;;2.83;0.40;;;11.40;99.90;;;;;;5093795;28;20035;-83
2021/12/28 12:56:51;;;;;;;2.08;0.25;;;11.40;99.90;;;;;;5095050;28;20031;-84
2021/12/28 12:59:24;;;;;;;2.15;0.28;;;11.50;99.90;;;;;;5093402;28;20464;-83